Herzlich willkommen!

Am freundlichen Bodensee-Flugplatz zwischen Schwarzwald, Rhein und Alpen.

Aktuelles

Es liegen keine aktuellen Meldungen vor. Wir freuen uns auf Ihren Besuch!

Live am Platz

Die Bilder unserer Webcams werden alle 5 Minuten aktualisiert.

Sonnenaufgang:

04:29 UTC / 06:29 Lokal

Sonnenuntergang:

18:21 UTC / 20:21 Lokal

METAR (24.08.2019 14:50 UTC):

EDNY 241450Z 25004KT CAVOK 24/17 Q1020
VFR

TAF (24.08.2019 11:00 UTC):

TAF EDNY 241100Z 2412/2512 24005KT 9999 SCT015 BECMG 2415/2417 VRB03KT TEMPO 2503/2507 0600 FG VV002 TEMPO 2507/2510 BKN009 BECMG 2508/2510 24005KT

Alle Angaben unverbindlich und ohne Gewähr. Zeiten genähert.

Für den Verkehrslandeplatz Konstanz werden keine offiziellen Wetterinformationen ausgegeben. Daher werden zur Orientierung Daten des nahegelegenen Flughafens Friedrichshafen dargestellt.

Flugwetterdaten zur Verfügung gestellt von wippich.aero.